Time;durP1;ratioP1;P1;durP2;ratioP2;P2;SDS_P1;SDS_P2;PMS_P1;PMS_P2;Temp;Humidity;BMP_temperature;BMP_pressure;BME280_temperature;BME280_humidity;BME280_pressure;Samples;Min_cycle;Max_cycle;Signal;HPM_P1;HPM_P2
2021/03/30 00:01:09;;;;;;;8.07;5.17;;;;;;;;;;4895589;29;20227;-82
2021/03/30 00:03:36;;;;;;;8.27;5.20;;;;;;;;;;4928310;28;20237;-80
2021/03/30 00:06:04;;;;;;;7.70;4.97;;;;;;;;;;4904586;29;20238;-81
2021/03/30 00:08:32;;;;;;;8.60;4.67;;;;;;;;;;4902508;28;20222;-80
2021/03/30 00:11:01;;;;;;;7.37;4.70;;;;;;;;;;4906120;28;20833;-80
2021/03/30 00:13:28;;;;;;;8.30;4.70;;;;;;;;;;4897736;28;20365;-80
2021/03/30 00:15:56;;;;;;;7.20;4.57;;;;;;;;;;4890418;29;20233;-79
2021/03/30 00:18:24;;;;;;;10.30;5.03;;;;;;;;;;4918729;28;20603;-79
2021/03/30 00:20:52;;;;;;;7.37;4.50;;;;;;;;;;4914640;28;20225;-80
2021/03/30 00:23:20;;;;;;;6.83;5.03;;;;;;;;;;4908345;29;20393;-82
2021/03/30 00:25:47;;;;;;;6.87;4.70;;;;;;;;;;4882908;28;20240;-81
2021/03/30 00:28:16;;;;;;;9.70;5.03;;;;;;;;;;4907052;29;20234;-82
2021/03/30 00:30:43;;;;;;;5.53;4.10;;;;;;;;;;4914363;28;20234;-81
2021/03/30 00:33:12;;;;;;;7.23;4.70;;;;;;;;;;4916903;29;20230;-81
2021/03/30 00:35:39;;;;;;;8.33;5.00;;;;;;;;;;4925612;28;20498;-80
2021/03/30 00:38:09;;;;;;;8.67;5.27;;;;;;;;;;4917886;29;20224;-80
2021/03/30 00:40:37;;;;;;;6.43;4.73;;;;;;;;;;4926079;28;20235;-81
2021/03/30 00:43:05;;;;;;;5.93;4.60;;;;;;;;;;4906965;29;20233;-79
2021/03/30 00:45:34;;;;;;;9.30;5.00;;;;;;;;;;4926035;28;20228;-81
2021/03/30 00:48:01;;;;;;;8.10;4.53;;;;;;;;;;4907085;28;20367;-80
2021/03/30 00:50:32;;;;;;;6.63;5.00;;;;;;;;;;4906532;29;20227;-80
2021/03/30 00:53:05;;;;;;;7.03;5.10;;;;;;;;;;4904642;29;20257;-81
2021/03/30 00:55:51;;;;;;;9.13;4.77;;;;;;;;;;4906576;29;20237;-82
2021/03/30 00:58:19;;;;;;;5.63;4.53;;;;;;;;;;4911577;28;20236;-79
2021/03/30 01:00:48;;;;;;;7.30;4.93;;;;;;;;;;4888821;29;20234;-80
2021/03/30 01:03:15;;;;;;;9.00;5.30;;;;;;;;;;4915468;28;20246;-79
2021/03/30 01:05:43;;;;;;;8.80;5.50;;;;;;;;;;4866976;29;20509;-80
2021/03/30 01:08:25;;;;;;;6.50;4.60;;;;;;;;;;4886365;29;20235;-79
2021/03/30 01:10:58;;;;;;;6.83;4.97;;;;;;;;;;4921644;28;20711;-81
2021/03/30 01:13:37;;;;;;;7.83;4.87;;;;;;;;;;4905006;28;20240;-81
2021/03/30 01:16:09;;;;;;;7.27;4.47;;;;;;;;;;4908520;28;20236;-79
2021/03/30 01:18:40;;;;;;;8.07;4.73;;;;;;;;;;4920145;28;20232;-81
2021/03/30 01:21:30;;;;;;;7.77;5.00;;;;;;;;;;4916334;29;20432;-79
2021/03/30 01:24:00;;;;;;;8.23;5.00;;;;;;;;;;4924712;28;20237;-81
2021/03/30 01:26:35;;;;;;;10.77;5.53;;;;;;;;;;4921785;28;21123;-80
2021/03/30 01:29:41;;;;;;;8.77;5.30;;;;;;;;;;4926769;29;21509;-83
2021/03/30 01:32:19;;;;;;;7.40;5.00;;;;;;;;;;4923316;28;20240;-80
2021/03/30 01:34:48;;;;;;;7.57;5.50;;;;;;;;;;4896033;28;20237;-79
2021/03/30 01:37:17;;;;;;;10.70;5.33;;;;;;;;;;4889337;29;23952;-80
2021/03/30 01:39:49;;;;;;;6.47;5.13;;;;;;;;;;4906609;29;20247;-81
2021/03/30 01:42:20;;;;;;;7.43;5.20;;;;;;;;;;4893141;29;20251;-84
2021/03/30 01:44:48;;;;;;;7.17;5.20;;;;;;;;;;4909292;29;20328;-80
2021/03/30 01:47:17;;;;;;;9.77;5.47;;;;;;;;;;4908685;29;20232;-80
2021/03/30 01:49:44;;;;;;;7.97;5.40;;;;;;;;;;4918850;28;20230;-81
2021/03/30 01:52:15;;;;;;;6.63;5.30;;;;;;;;;;4914372;29;20228;-83
2021/03/30 01:54:43;;;;;;;7.73;5.40;;;;;;;;;;4888887;28;20692;-80
2021/03/30 01:57:11;;;;;;;8.10;5.23;;;;;;;;;;4907151;29;20720;-81
2021/03/30 01:59:40;;;;;;;9.67;5.40;;;;;;;;;;4907168;29;20226;-82
2021/03/30 02:02:09;;;;;;;5.70;4.53;;;;;;;;;;4894016;29;20235;-81
2021/03/30 02:04:39;;;;;;;6.47;4.93;;;;;;;;;;4903619;28;20576;-83
2021/03/30 02:07:07;;;;;;;5.67;4.40;;;;;;;;;;4907762;28;20242;-80
2021/03/30 02:09:40;;;;;;;6.23;4.73;;;;;;;;;;4908766;28;20576;-80
2021/03/30 02:12:12;;;;;;;6.53;4.70;;;;;;;;;;4909725;29;20258;-81
2021/03/30 02:14:40;;;;;;;7.43;4.93;;;;;;;;;;4911153;29;20228;-81
2021/03/30 02:17:16;;;;;;;8.00;5.20;;;;;;;;;;4910993;29;20244;-83
2021/03/30 02:19:48;;;;;;;7.90;5.23;;;;;;;;;;4886790;29;20612;-86
2021/03/30 02:22:23;;;;;;;6.13;4.73;;;;;;;;;;4911376;29;20239;-85
2021/03/30 02:24:52;;;;;;;7.47;5.33;;;;;;;;;;4891415;28;20228;-83
2021/03/30 02:27:21;;;;;;;8.77;4.83;;;;;;;;;;4905999;29;20240;-82
2021/03/30 02:29:50;;;;;;;8.60;4.97;;;;;;;;;;4924488;28;20243;-82
2021/03/30 02:32:19;;;;;;;8.60;4.73;;;;;;;;;;4914355;28;20238;-79
2021/03/30 02:34:48;;;;;;;9.20;5.50;;;;;;;;;;4906715;28;20235;-80
2021/03/30 02:37:16;;;;;;;7.40;4.87;;;;;;;;;;4906295;28;20338;-80
2021/03/30 02:39:44;;;;;;;6.57;4.70;;;;;;;;;;4912635;28;20256;-81
2021/03/30 02:42:13;;;;;;;7.50;4.43;;;;;;;;;;4914138;28;20326;-80
2021/03/30 02:44:41;;;;;;;6.70;4.47;;;;;;;;;;4909282;28;20267;-81
2021/03/30 02:47:10;;;;;;;7.57;4.90;;;;;;;;;;4908015;29;20240;-80
2021/03/30 02:49:38;;;;;;;7.00;5.00;;;;;;;;;;4887401;28;20228;-81
2021/03/30 02:52:07;;;;;;;5.40;4.70;;;;;;;;;;4896268;29;20239;-82
2021/03/30 02:54:34;;;;;;;6.53;4.90;;;;;;;;;;4905931;28;20270;-82
2021/03/30 02:57:02;;;;;;;7.63;4.87;;;;;;;;;;4910450;29;20248;-82
2021/03/30 02:59:30;;;;;;;7.77;4.37;;;;;;;;;;4928466;29;20248;-83
2021/03/30 03:01:59;;;;;;;6.43;4.03;;;;;;;;;;4912987;29;20244;-81
2021/03/30 03:04:27;;;;;;;5.20;4.30;;;;;;;;;;4884418;29;20958;-84
2021/03/30 03:06:56;;;;;;;5.50;4.37;;;;;;;;;;4897092;28;20237;-81
2021/03/30 03:09:24;;;;;;;6.47;4.47;;;;;;;;;;4904315;28;20227;-79
2021/03/30 03:11:52;;;;;;;5.43;4.37;;;;;;;;;;4907189;28;20225;-81
2021/03/30 03:14:21;;;;;;;6.87;4.37;;;;;;;;;;4905294;29;20236;-80
2021/03/30 03:16:49;;;;;;;5.10;4.43;;;;;;;;;;4907763;29;20225;-79
2021/03/30 03:19:17;;;;;;;6.83;4.70;;;;;;;;;;4905647;29;20236;-81
2021/03/30 03:21:44;;;;;;;8.33;5.17;;;;;;;;;;4909069;28;20228;-78
2021/03/30 03:24:14;;;;;;;5.37;4.50;;;;;;;;;;4905801;29;20599;-80
2021/03/30 03:26:41;;;;;;;5.97;4.10;;;;;;;;;;4897675;28;20236;-78
2021/03/30 03:29:14;;;;;;;7.20;4.83;;;;;;;;;;4897817;29;20231;-80
2021/03/30 03:31:42;;;;;;;6.47;4.70;;;;;;;;;;4905586;29;20231;-83
2021/03/30 03:34:10;;;;;;;7.00;4.87;;;;;;;;;;4912826;29;20232;-80
2021/03/30 03:36:39;;;;;;;5.87;4.50;;;;;;;;;;4909116;28;20484;-80
2021/03/30 03:39:09;;;;;;;6.30;5.03;;;;;;;;;;4891636;29;20252;-81
2021/03/30 03:41:39;;;;;;;5.37;4.70;;;;;;;;;;4886966;28;20240;-81
2021/03/30 03:44:07;;;;;;;8.23;4.83;;;;;;;;;;4890307;29;20607;-81
2021/03/30 03:46:35;;;;;;;6.20;4.43;;;;;;;;;;4911761;29;20232;-83
2021/03/30 03:49:04;;;;;;;6.87;4.50;;;;;;;;;;4898159;29;20852;-79
2021/03/30 03:51:35;;;;;;;6.80;4.77;;;;;;;;;;4912732;29;20236;-80
2021/03/30 03:54:06;;;;;;;5.77;5.17;;;;;;;;;;4912581;29;20247;-81
2021/03/30 03:56:39;;;;;;;7.23;4.37;;;;;;;;;;4907274;29;20241;-79
2021/03/30 03:59:10;;;;;;;5.57;4.43;;;;;;;;;;4910235;29;20611;-80
2021/03/30 04:01:41;;;;;;;7.13;4.00;;;;;;;;;;4917759;28;20240;-84
2021/03/30 04:04:15;;;;;;;5.60;4.80;;;;;;;;;;4931117;28;20228;-80
2021/03/30 04:06:49;;;;;;;8.60;5.10;;;;;;;;;;4918387;28;20243;-80
2021/03/30 04:09:18;;;;;;;5.33;4.83;;;;;;;;;;4918217;28;20228;-81
2021/03/30 04:11:49;;;;;;;6.40;4.70;;;;;;;;;;4917630;28;20247;-81
2021/03/30 04:14:16;;;;;;;7.30;5.27;;;;;;;;;;4915565;29;20231;-83
2021/03/30 04:16:44;;;;;;;8.13;5.00;;;;;;;;;;4909719;29;20248;-78
2021/03/30 04:19:12;;;;;;;5.90;5.27;;;;;;;;;;4904996;29;20247;-81
2021/03/30 04:21:40;;;;;;;6.40;4.73;;;;;;;;;;4921136;28;20239;-80
2021/03/30 04:24:08;;;;;;;6.63;5.07;;;;;;;;;;4931887;28;20236;-79
2021/03/30 04:26:37;;;;;;;8.93;5.20;;;;;;;;;;4912833;28;20251;-80
2021/03/30 04:29:06;;;;;;;6.50;4.67;;;;;;;;;;4899180;29;20235;-81
2021/03/30 04:31:34;;;;;;;6.20;4.80;;;;;;;;;;4908822;29;20722;-81
2021/03/30 04:34:02;;;;;;;9.97;5.77;;;;;;;;;;4918252;28;20235;-80
2021/03/30 04:36:29;;;;;;;8.53;5.27;;;;;;;;;;4899879;29;20239;-80
2021/03/30 04:38:57;;;;;;;10.17;5.63;;;;;;;;;;4911001;28;20232;-80
2021/03/30 04:41:24;;;;;;;7.00;5.70;;;;;;;;;;4898012;29;20239;-82
2021/03/30 04:43:52;;;;;;;7.40;5.33;;;;;;;;;;4897286;29;20228;-79
2021/03/30 04:46:20;;;;;;;8.80;5.67;;;;;;;;;;4917415;29;20224;-80
2021/03/30 04:48:48;;;;;;;7.80;5.10;;;;;;;;;;4900137;28;20220;-80
2021/03/30 04:51:16;;;;;;;6.83;5.40;;;;;;;;;;4916836;29;20228;-82
2021/03/30 04:53:44;;;;;;;10.90;5.60;;;;;;;;;;4933611;28;20236;-83
2021/03/30 04:56:12;;;;;;;6.53;5.23;;;;;;;;;;4916076;29;20244;-80
2021/03/30 04:58:39;;;;;;;8.13;5.20;;;;;;;;;;4912959;28;20232;-79
2021/03/30 05:01:07;;;;;;;12.03;5.60;;;;;;;;;;4906063;28;23559;-81
2021/03/30 05:03:35;;;;;;;10.87;5.07;;;;;;;;;;4890309;29;20237;-80
2021/03/30 05:06:04;;;;;;;8.57;5.13;;;;;;;;;;4921897;28;20242;-80
2021/03/30 05:08:31;;;;;;;9.27;5.10;;;;;;;;;;4922008;29;20232;-79
2021/03/30 05:10:59;;;;;;;6.47;4.57;;;;;;;;;;4911923;28;20238;-80
2021/03/30 05:13:27;;;;;;;7.80;4.80;;;;;;;;;;4916148;29;20236;-81
2021/03/30 05:15:54;;;;;;;8.33;5.37;;;;;;;;;;4916123;28;20235;-79
2021/03/30 05:18:22;;;;;;;6.80;5.13;;;;;;;;;;4903822;29;20219;-79
2021/03/30 05:20:51;;;;;;;7.83;5.37;;;;;;;;;;4918114;28;20228;-82
2021/03/30 05:23:19;;;;;;;6.80;5.23;;;;;;;;;;4934039;29;20219;-82
2021/03/30 05:25:50;;;;;;;9.63;5.60;;;;;;;;;;4930089;29;20226;-81
2021/03/30 05:28:18;;;;;;;9.33;5.77;;;;;;;;;;4940013;28;20230;-82
2021/03/30 05:30:46;;;;;;;7.30;4.90;;;;;;;;;;4930504;28;20238;-82
2021/03/30 05:33:14;;;;;;;9.03;4.97;;;;;;;;;;4909679;29;20236;-83
2021/03/30 05:35:41;;;;;;;5.80;4.90;;;;;;;;;;4931266;28;20243;-84
2021/03/30 05:38:10;;;;;;;8.60;5.00;;;;;;;;;;4918164;28;22019;-80
2021/03/30 05:40:38;;;;;;;9.87;5.93;;;;;;;;;;4897609;28;20242;-79
2021/03/30 05:43:05;;;;;;;9.40;6.03;;;;;;;;;;4899334;29;20239;-80
2021/03/30 05:45:33;;;;;;;8.37;5.50;;;;;;;;;;4888188;29;20224;-80
2021/03/30 05:48:01;;;;;;;9.57;6.00;;;;;;;;;;4905078;29;20239;-80
2021/03/30 05:50:33;;;;;;;9.60;5.67;;;;;;;;;;4904878;29;20216;-80
2021/03/30 05:53:06;;;;;;;7.90;5.57;;;;;;;;;;4915903;28;20231;-83
2021/03/30 05:55:37;;;;;;;6.30;5.40;;;;;;;;;;4924839;29;20231;-81
2021/03/30 05:58:06;;;;;;;11.00;5.80;;;;;;;;;;4916340;29;20251;-80
2021/03/30 06:00:34;;;;;;;9.37;5.23;;;;;;;;;;4921233;28;20228;-82
2021/03/30 06:03:04;;;;;;;7.07;5.20;;;;;;;;;;4910827;28;20243;-80
2021/03/30 06:05:32;;;;;;;115.37;15.67;;;;;;;;;;4913388;29;20224;-81
2021/03/30 06:08:01;;;;;;;7.57;5.50;;;;;;;;;;4896010;29;20220;-80
2021/03/30 06:10:30;;;;;;;6.13;5.50;;;;;;;;;;4907870;28;20236;-79
2021/03/30 06:13:00;;;;;;;45.03;10.47;;;;;;;;;;4883115;29;20231;-80
2021/03/30 06:15:29;;;;;;;7.93;5.67;;;;;;;;;;4896352;29;20232;-81
2021/03/30 06:17:58;;;;;;;8.60;5.70;;;;;;;;;;4901400;28;21271;-80
2021/03/30 06:20:28;;;;;;;9.10;5.70;;;;;;;;;;4895811;28;20616;-79
2021/03/30 06:22:58;;;;;;;8.27;5.10;;;;;;;;;;4900891;28;21364;-83
2021/03/30 06:25:37;;;;;;;7.20;5.33;;;;;;;;;;4874546;29;20824;-80
2021/03/30 06:28:17;;;;;;;7.93;5.33;;;;;;;;;;4899642;28;20231;-81
2021/03/30 06:31:01;;;;;;;8.37;5.77;;;;;;;;;;4887529;28;20220;-80
2021/03/30 06:33:30;;;;;;;7.77;5.30;;;;;;;;;;4910799;29;20231;-81
2021/03/30 06:36:21;;;;;;;8.70;5.67;;;;;;;;;;4904929;28;20236;-82
2021/03/30 06:38:50;;;;;;;9.17;5.47;;;;;;;;;;4912023;28;20235;-81
2021/03/30 06:41:31;;;;;;;7.27;5.77;;;;;;;;;;4904221;29;20601;-81
2021/03/30 06:44:27;;;;;;;8.30;5.30;;;;;;;;;;4906462;28;20707;-84
2021/03/30 06:46:57;;;;;;;8.50;5.73;;;;;;;;;;4908696;28;20247;-82
2021/03/30 06:49:27;;;;;;;9.43;5.60;;;;;;;;;;4901765;29;20233;-82
2021/03/30 06:51:55;;;;;;;7.40;5.50;;;;;;;;;;4891331;29;20224;-83
2021/03/30 06:54:23;;;;;;;8.90;5.77;;;;;;;;;;4909249;29;20268;-86
2021/03/30 06:56:52;;;;;;;11.70;5.30;;;;;;;;;;4892936;28;20244;-82
2021/03/30 06:59:22;;;;;;;7.57;4.60;;;;;;;;;;4914938;28;20233;-83
2021/03/30 07:01:51;;;;;;;10.53;5.07;;;;;;;;;;4914014;28;20598;-82
2021/03/30 07:04:19;;;;;;;7.77;4.87;;;;;;;;;;4915609;28;20226;-82
2021/03/30 07:06:51;;;;;;;10.10;4.97;;;;;;;;;;4913553;29;20237;-83
2021/03/30 07:09:19;;;;;;;9.07;5.00;;;;;;;;;;4914787;29;20221;-83
2021/03/30 07:11:47;;;;;;;8.60;5.80;;;;;;;;;;4914910;28;20235;-84
2021/03/30 07:14:15;;;;;;;8.70;4.87;;;;;;;;;;4911172;29;20239;-81
2021/03/30 07:16:50;;;;;;;9.53;4.93;;;;;;;;;;4897623;28;20233;-81
2021/03/30 07:19:23;;;;;;;9.20;4.57;;;;;;;;;;4915390;28;20238;-83
2021/03/30 07:21:58;;;;;;;8.03;5.17;;;;;;;;;;4908288;29;20248;-81
2021/03/30 07:24:31;;;;;;;10.67;4.60;;;;;;;;;;4916532;29;20275;-80
2021/03/30 07:27:02;;;;;;;7.90;5.57;;;;;;;;;;4923618;28;20227;-79
2021/03/30 07:29:36;;;;;;;8.97;5.13;;;;;;;;;;4936945;29;20216;-79
2021/03/30 07:32:08;;;;;;;8.30;5.33;;;;;;;;;;4941617;28;20222;-79
2021/03/30 07:34:43;;;;;;;6.87;4.80;;;;;;;;;;4934396;28;20219;-82
2021/03/30 07:37:15;;;;;;;11.73;5.23;;;;;;;;;;4926066;29;20272;-80
2021/03/30 07:39:46;;;;;;;9.03;5.83;;;;;;;;;;4909919;28;20240;-81
2021/03/30 07:42:15;;;;;;;7.60;5.70;;;;;;;;;;4910642;29;20247;-79
2021/03/30 07:44:46;;;;;;;8.47;5.83;;;;;;;;;;4907454;28;20236;-81
2021/03/30 07:47:15;;;;;;;8.03;5.37;;;;;;;;;;4905624;28;20258;-79
2021/03/30 07:49:44;;;;;;;8.17;5.77;;;;;;;;;;4902075;29;20228;-80
2021/03/30 07:52:17;;;;;;;9.63;5.60;;;;;;;;;;4905240;29;20231;-80
2021/03/30 07:55:14;;;;;;;7.80;5.43;;;;;;;;;;4928829;28;20231;-78
2021/03/30 07:58:08;;;;;;;8.07;5.77;;;;;;;;;;4946127;28;20236;-81
2021/03/30 08:00:54;;;;;;;8.60;5.90;;;;;;;;;;4918432;29;20243;-82
2021/03/30 08:03:26;;;;;;;10.73;6.07;;;;;;;;;;4915346;29;20250;-80
2021/03/30 08:06:20;;;;;;;7.60;5.97;;;;;;;;;;4918558;28;20693;-82
2021/03/30 08:09:16;;;;;;;8.40;6.03;;;;;;;;;;4896683;29;20228;-80
2021/03/30 08:11:54;;;;;;;8.57;5.80;;;;;;;;;;4908747;29;20235;-80
2021/03/30 08:14:38;;;;;;;11.03;6.73;;;;;;;;;;4908494;29;20232;-80
2021/03/30 08:17:19;;;;;;;9.53;6.13;;;;;;;;;;4890441;29;20244;-80
2021/03/30 08:20:06;;;;;;;10.30;6.80;;;;;;;;;;4922965;28;20236;-81
2021/03/30 08:23:11;;;;;;;8.93;6.07;;;;;;;;;;4917911;28;20220;-79
2021/03/30 08:25:39;;;;;;;10.63;6.00;;;;;;;;;;4895236;28;20721;-80
2021/03/30 08:28:07;;;;;;;7.87;5.50;;;;;;;;;;4906531;29;20232;-80
2021/03/30 08:30:57;;;;;;;15.03;6.80;;;;;;;;;;4885222;29;20231;-82
2021/03/30 08:33:32;;;;;;;14.97;6.43;;;;;;;;;;4919661;28;20239;-80
2021/03/30 08:36:22;;;;;;;9.97;6.20;;;;;;;;;;4906563;29;20228;-80
2021/03/30 08:38:51;;;;;;;9.00;6.87;;;;;;;;;;4896618;28;20259;-80
2021/03/30 08:41:53;;;;;;;10.43;6.17;;;;;;;;;;4902598;29;20714;-80
2021/03/30 08:44:23;;;;;;;12.67;6.83;;;;;;;;;;4889402;28;20220;-80
2021/03/30 08:46:53;;;;;;;10.40;7.47;;;;;;;;;;4909173;28;20228;-78
2021/03/30 08:49:27;;;;;;;10.80;7.03;;;;;;;;;;4925970;29;20227;-82
2021/03/30 08:51:59;;;;;;;9.73;6.77;;;;;;;;;;4931654;28;20235;-80
2021/03/30 08:54:29;;;;;;;10.90;6.93;;;;;;;;;;4888683;29;20627;-80
2021/03/30 08:57:00;;;;;;;9.87;6.60;;;;;;;;;;4895339;29;20240;-85
2021/03/30 08:59:29;;;;;;;9.80;7.10;;;;;;;;;;4903139;29;20235;-83
2021/03/30 09:02:01;;;;;;;9.47;6.67;;;;;;;;;;4889070;28;20231;-86
2021/03/30 09:04:34;;;;;;;12.00;6.60;;;;;;;;;;4914515;28;20622;-82
2021/03/30 09:07:03;;;;;;;9.43;6.77;;;;;;;;;;4912891;28;20231;-82
2021/03/30 09:09:34;;;;;;;12.70;7.03;;;;;;;;;;4899219;29;20237;-81
2021/03/30 09:12:05;;;;;;;10.57;6.50;;;;;;;;;;4899200;28;20232;-81
2021/03/30 09:14:33;;;;;;;10.50;7.10;;;;;;;;;;4906988;29;20220;-80
2021/03/30 09:17:08;;;;;;;9.77;6.00;;;;;;;;;;4904623;29;20251;-79
2021/03/30 09:19:42;;;;;;;11.63;6.80;;;;;;;;;;4890456;28;20238;-81
2021/03/30 09:22:16;;;;;;;10.93;6.10;;;;;;;;;;4905106;29;20263;-80
2021/03/30 09:24:57;;;;;;;7.83;6.10;;;;;;;;;;4911363;28;20236;-80
2021/03/30 09:27:27;;;;;;;11.53;6.77;;;;;;;;;;4908751;28;20705;-80
2021/03/30 09:29:56;;;;;;;11.43;7.07;;;;;;;;;;4902699;28;20236;-81
2021/03/30 09:32:24;;;;;;;8.43;6.57;;;;;;;;;;4887691;29;20240;-81
2021/03/30 09:35:06;;;;;;;7.97;5.73;;;;;;;;;;4919569;28;20262;-80
2021/03/30 09:37:40;;;;;;;8.37;5.67;;;;;;;;;;4901963;28;20246;-83
2021/03/30 09:40:10;;;;;;;9.80;6.30;;;;;;;;;;4916366;28;21334;-82
2021/03/30 09:42:50;;;;;;;10.07;6.47;;;;;;;;;;4894910;29;20740;-79
2021/03/30 09:45:21;;;;;;;10.40;6.03;;;;;;;;;;4911466;28;20236;-80
2021/03/30 09:47:49;;;;;;;10.87;6.30;;;;;;;;;;4927342;28;20236;-80
2021/03/30 09:50:19;;;;;;;8.93;5.60;;;;;;;;;;4906558;29;20248;-80
2021/03/30 09:52:48;;;;;;;12.83;6.20;;;;;;;;;;4899499;28;20240;-80
2021/03/30 09:55:29;;;;;;;12.03;6.20;;;;;;;;;;4912936;29;20251;-82
2021/03/30 09:58:00;;;;;;;8.33;5.70;;;;;;;;;;4920253;28;20243;-84
2021/03/30 10:00:29;;;;;;;9.53;5.23;;;;;;;;;;4895771;29;20229;-82
2021/03/30 10:02:57;;;;;;;7.70;4.83;;;;;;;;;;4904913;29;20722;-80
2021/03/30 10:05:32;;;;;;;6.77;4.90;;;;;;;;;;4914003;29;20247;-81
2021/03/30 10:08:00;;;;;;;10.07;5.60;;;;;;;;;;4921341;28;20738;-80
2021/03/30 10:10:40;;;;;;;11.37;6.10;;;;;;;;;;4922220;28;20228;-80
2021/03/30 10:13:21;;;;;;;7.50;5.37;;;;;;;;;;4911261;29;20236;-83
2021/03/30 10:15:50;;;;;;;8.80;5.57;;;;;;;;;;4899059;29;20658;-79
2021/03/30 10:18:20;;;;;;;8.17;5.73;;;;;;;;;;4895984;29;20239;-81
2021/03/30 10:20:50;;;;;;;9.53;5.10;;;;;;;;;;4909959;28;20235;-81
2021/03/30 10:23:22;;;;;;;6.40;4.60;;;;;;;;;;4936644;29;20248;-79
2021/03/30 10:25:50;;;;;;;6.63;4.93;;;;;;;;;;4922284;29;20721;-80
2021/03/30 10:28:25;;;;;;;8.70;5.77;;;;;;;;;;4931055;29;20232;-81
2021/03/30 10:30:57;;;;;;;10.37;6.73;;;;;;;;;;4909045;29;20224;-79
2021/03/30 10:33:33;;;;;;;7.43;6.45;;;;;;;;;;4924950;28;20247;-80
2021/03/30 10:36:02;;;;;;;7.75;6.22;;;;;;;;;;4900812;29;20258;-80
2021/03/30 10:38:30;;;;;;;11.00;6.07;;;;;;;;;;4908464;29;20224;-78
2021/03/30 10:41:05;;;;;;;6.50;5.30;;;;;;;;;;4905443;28;20227;-78
2021/03/30 10:43:33;;;;;;;8.98;5.60;;;;;;;;;;4897192;29;20254;-79
2021/03/30 10:46:01;;;;;;;10.52;6.00;;;;;;;;;;4909526;28;20240;-80
2021/03/30 10:48:29;;;;;;;5.88;5.35;;;;;;;;;;4913100;29;20228;-81
2021/03/30 10:50:56;;;;;;;9.52;5.63;;;;;;;;;;4909689;28;20585;-78
2021/03/30 10:53:24;;;;;;;8.18;6.10;;;;;;;;;;4906699;29;20239;-82
2021/03/30 10:55:53;;;;;;;10.90;5.88;;;;;;;;;;4899888;29;20232;-77
2021/03/30 10:58:21;;;;;;;7.85;5.80;;;;;;;;;;4896789;29;20699;-78
2021/03/30 11:00:49;;;;;;;8.13;6.22;;;;;;;;;;4904365;28;20232;-81
2021/03/30 11:03:28;;;;;;;11.20;5.80;;;;;;;;;;4890921;29;20616;-78
2021/03/30 11:05:56;;;;;;;6.85;5.57;;;;;;;;;;4893425;28;21170;-79
2021/03/30 11:08:25;;;;;;;8.90;6.15;;;;;;;;;;4890330;29;20607;-81
2021/03/30 11:10:53;;;;;;;7.70;5.35;;;;;;;;;;4919642;28;20224;-79
2021/03/30 11:13:21;;;;;;;8.40;5.07;;;;;;;;;;4905409;28;20235;-79
2021/03/30 11:15:49;;;;;;;6.60;5.25;;;;;;;;;;4909226;28;20243;-79
2021/03/30 11:18:17;;;;;;;7.63;5.57;;;;;;;;;;4906464;29;20227;-80
2021/03/30 11:20:45;;;;;;;7.50;4.95;;;;;;;;;;4907393;28;20244;-79
2021/03/30 11:23:12;;;;;;;6.93;6.03;;;;;;;;;;4906215;29;20240;-78
2021/03/30 11:25:40;;;;;;;9.60;5.30;;;;;;;;;;4904528;28;20323;-78
2021/03/30 11:28:11;;;;;;;6.97;5.97;;;;;;;;;;4910082;28;20236;-81
2021/03/30 11:30:42;;;;;;;7.38;5.82;;;;;;;;;;4903017;28;20978;-79
2021/03/30 11:33:16;;;;;;;9.90;5.28;;;;;;;;;;4902854;29;20228;-80
2021/03/30 11:35:50;;;;;;;6.32;5.68;;;;;;;;;;4908243;29;20228;-79
2021/03/30 11:38:18;;;;;;;6.97;5.15;;;;;;;;;;4902651;29;20338;-79
2021/03/30 11:40:45;;;;;;;8.95;5.75;;;;;;;;;;4905034;29;20232;-79
2021/03/30 11:43:14;;;;;;;6.32;5.63;;;;;;;;;;4902464;29;20236;-79
2021/03/30 11:45:42;;;;;;;8.57;6.80;;;;;;;;;;4914115;29;20231;-78
2021/03/30 11:48:10;;;;;;;7.82;6.80;;;;;;;;;;4905272;29;20225;-81
2021/03/30 11:50:37;;;;;;;12.00;6.20;;;;;;;;;;4912251;28;20239;-80
2021/03/30 11:53:05;;;;;;;8.02;6.03;;;;;;;;;;4926409;28;20733;-80
2021/03/30 11:55:33;;;;;;;7.88;5.72;;;;;;;;;;4909112;29;20700;-80
2021/03/30 11:58:00;;;;;;;10.55;6.00;;;;;;;;;;4908058;28;20232;-81
2021/03/30 12:00:29;;;;;;;9.23;6.38;;;;;;;;;;4908500;29;20242;-80
2021/03/30 12:03:03;;;;;;;9.52;6.82;;;;;;;;;;4905594;29;20729;-80
2021/03/30 12:05:30;;;;;;;7.05;6.03;;;;;;;;;;4909312;29;20228;-80
2021/03/30 12:07:59;;;;;;;6.93;6.22;;;;;;;;;;4909150;28;20235;-80
2021/03/30 12:10:27;;;;;;;7.78;6.10;;;;;;;;;;4909277;29;20240;-80
2021/03/30 12:12:55;;;;;;;9.73;6.70;;;;;;;;;;4905543;28;20239;-80
2021/03/30 12:15:22;;;;;;;6.97;6.28;;;;;;;;;;4911590;29;20243;-80
2021/03/30 12:17:51;;;;;;;8.65;6.90;;;;;;;;;;4908792;29;20247;-80
2021/03/30 12:20:18;;;;;;;7.00;6.30;;;;;;;;;;4904984;29;20228;-80
2021/03/30 12:22:46;;;;;;;8.68;6.85;;;;;;;;;;4919184;28;20240;-80
2021/03/30 12:25:14;;;;;;;9.70;6.40;;;;;;;;;;4915439;29;20239;-80
2021/03/30 12:27:41;;;;;;;8.13;7.03;;;;;;;;;;4918220;28;20567;-81
2021/03/30 12:30:10;;;;;;;8.90;7.15;;;;;;;;;;4897809;29;20340;-80
2021/03/30 12:32:38;;;;;;;7.82;6.47;;;;;;;;;;4901060;28;20233;-81
2021/03/30 12:35:08;;;;;;;8.85;7.45;;;;;;;;;;4926937;28;20235;-80
2021/03/30 12:37:36;;;;;;;8.00;7.10;;;;;;;;;;4898289;28;20236;-80
2021/03/30 12:40:04;;;;;;;10.98;6.72;;;;;;;;;;4911274;28;20235;-81
2021/03/30 12:42:32;;;;;;;8.55;7.43;;;;;;;;;;4913368;29;20749;-81
2021/03/30 12:45:00;;;;;;;8.18;6.45;;;;;;;;;;4913559;29;20905;-81
2021/03/30 12:47:27;;;;;;;8.23;7.38;;;;;;;;;;4910539;29;20452;-79
2021/03/30 12:49:55;;;;;;;8.15;6.95;;;;;;;;;;4907463;28;20231;-79
2021/03/30 12:52:24;;;;;;;8.25;6.82;;;;;;;;;;4916786;28;20239;-79
2021/03/30 12:54:54;;;;;;;9.00;7.03;;;;;;;;;;4903356;28;20220;-79
2021/03/30 12:57:22;;;;;;;7.10;6.50;;;;;;;;;;4900255;29;20244;-80
2021/03/30 12:59:49;;;;;;;8.95;7.07;;;;;;;;;;4892864;29;21998;-79
2021/03/30 13:02:17;;;;;;;8.18;6.72;;;;;;;;;;4900387;28;20231;-79
2021/03/30 13:04:45;;;;;;;7.05;6.38;;;;;;;;;;4901762;28;20232;-80
2021/03/30 13:07:17;;;;;;;9.27;7.50;;;;;;;;;;4890122;29;20232;-79
2021/03/30 13:09:47;;;;;;;7.97;7.18;;;;;;;;;;4907722;28;20217;-79
2021/03/30 13:12:16;;;;;;;8.55;7.75;;;;;;;;;;4920857;28;20239;-80
2021/03/30 13:14:46;;;;;;;8.95;7.90;;;;;;;;;;4908654;28;20251;-80
2021/03/30 13:17:14;;;;;;;7.95;7.15;;;;;;;;;;4918487;28;20572;-79
2021/03/30 13:19:42;;;;;;;8.55;7.63;;;;;;;;;;4897787;29;20236;-79
2021/03/30 13:22:12;;;;;;;8.23;7.43;;;;;;;;;;4925475;29;20244;-79
2021/03/30 13:24:40;;;;;;;12.80;9.52;;;;;;;;;;4902027;28;20231;-79
2021/03/30 13:27:10;;;;;;;8.80;7.95;;;;;;;;;;4929332;29;20247;-80
2021/03/30 13:29:39;;;;;;;10.57;8.93;;;;;;;;;;4927791;29;20239;-80
2021/03/30 13:32:08;;;;;;;14.85;13.35;;;;;;;;;;4941051;28;20231;-80
2021/03/30 13:34:36;;;;;;;10.77;8.88;;;;;;;;;;4911446;29;20231;-80
2021/03/30 13:37:04;;;;;;;10.05;9.05;;;;;;;;;;4914821;29;20242;-81
2021/03/30 13:39:32;;;;;;;10.88;9.50;;;;;;;;;;4925065;29;20213;-80
2021/03/30 13:42:00;;;;;;;9.93;8.95;;;;;;;;;;4932417;28;20232;-80
2021/03/30 13:44:29;;;;;;;12.43;8.40;;;;;;;;;;4932416;29;20236;-80
2021/03/30 13:46:58;;;;;;;8.35;7.18;;;;;;;;;;4930318;29;20239;-81
2021/03/30 13:49:27;;;;;;;9.05;6.88;;;;;;;;;;4919393;29;20240;-80
2021/03/30 13:51:55;;;;;;;7.10;5.97;;;;;;;;;;4922610;29;20225;-81
2021/03/30 13:54:24;;;;;;;8.10;5.55;;;;;;;;;;4932793;29;20236;-79
2021/03/30 13:56:52;;;;;;;8.20;4.90;;;;;;;;;;4925695;28;20573;-80
2021/03/30 13:59:19;;;;;;;7.55;5.72;;;;;;;;;;4917254;29;20619;-80
2021/03/30 14:01:49;;;;;;;6.80;5.93;;;;;;;;;;4912515;29;20243;-79
2021/03/30 14:04:21;;;;;;;6.93;5.57;;;;;;;;;;4915802;28;20240;-80
2021/03/30 14:06:50;;;;;;;8.05;5.88;;;;;;;;;;4935019;28;20236;-81
2021/03/30 14:09:19;;;;;;;7.43;6.00;;;;;;;;;;4939633;28;20247;-81
2021/03/30 14:11:48;;;;;;;6.45;5.78;;;;;;;;;;4934183;28;20224;-81
2021/03/30 14:14:17;;;;;;;8.60;6.22;;;;;;;;;;4921096;29;20228;-81
2021/03/30 14:16:58;;;;;;;7.80;7.07;;;;;;;;;;4908362;28;20236;-79
2021/03/30 14:19:30;;;;;;;8.60;6.30;;;;;;;;;;4904504;29;20255;-80
2021/03/30 14:22:00;;;;;;;8.35;6.35;;;;;;;;;;4914736;29;20228;-80
2021/03/30 14:24:48;;;;;;;10.10;6.72;;;;;;;;;;4914645;28;20244;-80
2021/03/30 14:27:16;;;;;;;8.65;6.75;;;;;;;;;;4928794;28;20243;-81
2021/03/30 14:30:05;;;;;;;7.80;6.55;;;;;;;;;;4936390;28;20219;-82
2021/03/30 14:32:34;;;;;;;8.10;7.00;;;;;;;;;;4945225;28;20239;-81
2021/03/30 14:35:03;;;;;;;7.45;6.65;;;;;;;;;;4932944;28;20212;-81
2021/03/30 14:37:33;;;;;;;7.88;6.50;;;;;;;;;;4932063;28;20212;-81
2021/03/30 14:40:06;;;;;;;6.18;5.57;;;;;;;;;;4923880;29;20221;-81
2021/03/30 14:42:34;;;;;;;7.28;5.95;;;;;;;;;;4921517;28;20229;-80
2021/03/30 14:45:40;;;;;;;8.73;5.63;;;;;;;;;;4937019;28;20672;-79
2021/03/30 14:54:22;;;;;;;6.50;5.32;;;;;;;;;;4920710;29;20226;-79
2021/03/30 14:56:53;;;;;;;6.45;5.35;;;;;;;;;;4896753;28;20228;-80
2021/03/30 14:59:31;;;;;;;5.60;5.10;;;;;;;;;;4934887;28;20228;-80
2021/03/30 15:04:41;;;;;;;4.40;4.00;;;;;;;;;;4928721;28;20895;-80
2021/03/30 15:07:09;;;;;;;5.53;4.88;;;;;;;;;;4910383;29;20235;-81
2021/03/30 15:09:37;;;;;;;8.27;4.78;;;;;;;;;;4910433;28;20733;-79
2021/03/30 15:12:09;;;;;;;8.32;4.10;;;;;;;;;;4909064;29;20713;-80